West Paducah, KY

10:02 PM CDT on May 29, 2017 (GMT -0500)
Heath | | Change Station
Active Advisory: Flood Warning

Elev 395 ft 37.07 °N, 88.81 °W | Updated 7 seconds ago

Scattered Clouds
Scattered Clouds
74.7 °F
Feels Like 77 °F
N
0.0
Wind Variable Wind from North
Gusts 0.0 mph

Today
High -- | Low -- °F
--% Chance of Precip.
Yesterday
High -- | Low -- °F
Precip. -- in
Pressure 29.95 in
Visibility 10.0 miles
Clouds Scattered Clouds 8500 ft
Heat Index 77 °F
Dew Point 61 °F
Humidity 63%
Rainfall 0.00 in
Snow Depth Not available.
5:37 AM 8:07 PM
Waxing Crescent, 25% visible
METAR KPAH 300253Z 22005KT 10SM SCT085 23/13 A2996 RMK AO2 LTG DSNT NW SLP140 T02330133 51011
Pressure 29.95 in
Visibility 10.0 miles
Clouds Scattered Clouds 8500 ft
Heat Index 77 °F
Dew Point 61 °F
Humidity 63%
Rainfall 0.00 in
Snow Depth Not available.
5:37 AM 8:07 PM
Waxing Crescent, 25% visible
METAR KPAH 300253Z 22005KT 10SM SCT085 23/13 A2996 RMK AO2 LTG DSNT NW SLP140 T02330133 51011

Get Your Daily Forecast Email!

Thanks for signing up!

Be on the lookout for a verification email in your inbox.

You'll start receiving severe weather alerts in your inbox..

×

10-Day Weather Forecast

Almanac

Astronomy

May. 29, 2017 Rise Set
Actual Time
Civil Twilight
Nautical Twilight
Astronomical Twilight
Moon
Length of Visible Light
Length of Day
Tomorrow will be .
, % of the Moon is Illuminated

Today's Extremes

State Highs State Lows

Community

WunderPhotos

Category 6

Welcome to Category 6. This is the collective home for Weather Underground's featured writeups by Dr. Jeff Masters (right), Bob Henson (left), Chris Burt, and other regular contributors.

Nearby

Air Quality

  Air Quality AQ Index Pollutant
Not available.

Snow Depth

Station Depth Elevation

Earthquake Activity

City Distance Mag. Time & Date
Minimum magnitude displayed is 2.5.

Coastal Water Temperatures

Place Temperature

Stations

Nearby Weather Stations

Station Location Temp. Windchill Dew Point Humidity Wind Precip. Elev Updated Type
                   

Watches & Warnings

Flood Warning
Issued: 8:47 PM CDT May. 29, 2017 – National Weather Service

The Flood Warning continues for
the Ohio River at Grand Chain dam
* from Wednesday afternoon to late Saturday night.
* At 8:00 PM Monday the stage was 41.4 feet.
* Flood stage is 42.0 feet.
* Minor flooding is forecast. The river will rise above flood
stage Wednesday morning and continue to rise to near 42.5
feet by Friday. River levels are then expected to slowly
fall through next weekend.
* Impact... at 42.0 feet... this will cause minor flooding of mainly low
lying areas.


Lat... Lon 3727 8908 3727 8884 3714 8888 3709 8907
      3717 8916